Terminal Aerodrome Forecast
Issued by NWS

Home | Current Version | Previous Version | Text Only | Print | Product List | Glossary On
Versions: 1 2 3 4 5 6 7 8 9 10 11 12 13 14 15 16 17 18 19 20 21 22
000
FTUS43 KMQT 301137
TAFIWD
TAF
KIWD 301137Z 3012/3112 28004KT P6SM OVC025
     FM301800 23005KT P6SM BKN050
     FM310600 22006KT 4SM -SN OVC025
     FM311100 27005KT P6SM -SN OVC014
      AMD LTD TO CLD VIS AND WIND=

USA.gov is the U.S. government's official web portal to all federal, state and local government web resources and services.